sensor_id;sensor_type;location;lat;lon;timestamp;pressure;altitude;pressure_sealevel;temperature;humidity
39681;BME280;26327;42.550;23.120;2023-04-20T07:18:38;92511.75;;;11.34;79.97
39681;BME280;26327;42.550;23.120;2023-04-20T07:21:03;92442.25;;;10.80;81.77
39681;BME280;26327;42.550;23.120;2023-04-20T07:23:29;92512.50;;;11.28;84.15
39681;BME280;26327;42.550;23.120;2023-04-20T07:25:54;92510.06;;;11.61;81.75
39681;BME280;26327;42.550;23.120;2023-04-20T07:28:19;92517.41;;;11.44;83.70
39681;BME280;26327;42.550;23.120;2023-04-20T07:30:45;92389.78;;;10.57;85.82
39681;BME280;26327;42.550;23.120;2023-04-20T07:33:10;92511.59;;;11.42;85.62
39681;BME280;26327;42.550;23.120;2023-04-20T07:35:36;92453.28;;;11.23;84.18
39681;BME280;26327;42.550;23.120;2023-04-20T07:38:01;92503.28;;;11.66;82.95
39681;BME280;26327;42.550;23.120;2023-04-20T07:40:27;92498.72;;;11.27;86.17
39681;BME280;26327;42.550;23.120;2023-04-20T07:42:52;92508.09;;;11.22;89.00
39681;BME280;26327;42.550;23.120;2023-04-20T07:45:18;92510.63;;;11.09;90.90
39681;BME280;26327;42.550;23.120;2023-04-20T07:47:43;92514.09;;;11.22;92.12
39681;BME280;26327;42.550;23.120;2023-04-20T07:50:11;92513.94;;;11.30;92.24
39681;BME280;26327;42.550;23.120;2023-04-20T07:52:36;92437.91;;;10.87;90.65
39681;BME280;26327;42.550;23.120;2023-04-20T07:55:02;92508.78;;;11.37;89.20
39681;BME280;26327;42.550;23.120;2023-04-20T07:57:28;92450.03;;;11.08;89.23
39681;BME280;26327;42.550;23.120;2023-04-20T07:59:53;92490.75;;;10.94;89.20
39681;BME280;26327;42.550;23.120;2023-04-20T08:02:19;92517.03;;;11.47;89.89
39681;BME280;26327;42.550;23.120;2023-04-20T08:04:45;92490.69;;;11.22;90.21
39681;BME280;26327;42.550;23.120;2023-04-20T08:07:10;92447.06;;;10.83;90.50
39681;BME280;26327;42.550;23.120;2023-04-20T08:09:36;92437.22;;;10.72;90.96
39681;BME280;26327;42.550;23.120;2023-04-20T08:12:02;92508.75;;;10.96;91.61
39681;BME280;26327;42.550;23.120;2023-04-20T08:14:27;92495.53;;;10.63;92.30
39681;BME280;26327;42.550;23.120;2023-04-20T08:16:53;92432.44;;;10.20;94.00
39681;BME280;26327;42.550;23.120;2023-04-20T08:19:18;92503.06;;;10.58;93.70
39681;BME280;26327;42.550;23.120;2023-04-20T08:21:44;92490.84;;;10.52;93.87
39681;BME280;26327;42.550;23.120;2023-04-20T08:24:09;92506.28;;;10.60;95.28
39681;BME280;26327;42.550;23.120;2023-04-20T08:26:35;92453.81;;;10.43;96.21
39681;BME280;26327;42.550;23.120;2023-04-20T08:29:01;92440.97;;;10.35;94.22
39681;BME280;26327;42.550;23.120;2023-04-20T08:31:27;92432.09;;;10.23;94.53
39681;BME280;26327;42.550;23.120;2023-04-20T08:33:52;92472.63;;;10.45;93.40
39681;BME280;26327;42.550;23.120;2023-04-20T08:36:18;92510.25;;;10.56;94.20
39681;BME280;26327;42.550;23.120;2023-04-20T08:38:44;92488.56;;;10.70;93.25
39681;BME280;26327;42.550;23.120;2023-04-20T08:41:10;92453.44;;;10.46;92.76
39681;BME280;26327;42.550;23.120;2023-04-20T08:43:38;92496.94;;;10.93;92.24
39681;BME280;26327;42.550;23.120;2023-04-20T08:46:03;92509.53;;;11.31;91.07
39681;BME280;26327;42.550;23.120;2023-04-20T08:48:38;92514.09;;;11.70;89.73
39681;BME280;26327;42.550;23.120;2023-04-20T08:51:06;92510.41;;;11.86;89.22
39681;BME280;26327;42.550;23.120;2023-04-20T08:53:31;92443.22;;;11.61;87.15
39681;BME280;26327;42.550;23.120;2023-04-20T08:55:57;92437.31;;;11.33;88.30
39681;BME280;26327;42.550;23.120;2023-04-20T08:58:30;92453.63;;;11.07;88.49
39681;BME280;26327;42.550;23.120;2023-04-20T09:00:59;92455.09;;;11.23;90.30
39681;BME280;26327;42.550;23.120;2023-04-20T09:03:41;92509.84;;;12.10;85.15
39681;BME280;26327;42.550;23.120;2023-04-20T09:06:14;92508.25;;;12.22;85.27
39681;BME280;26327;42.550;23.120;2023-04-20T09:08:41;92509.84;;;12.04;84.31
39681;BME280;26327;42.550;23.120;2023-04-20T09:14:04;92512.72;;;12.48;81.45
39681;BME280;26327;42.550;23.120;2023-04-20T09:16:31;92442.53;;;12.14;80.76
39681;BME280;26327;42.550;23.120;2023-04-20T09:18:58;92447.34;;;12.17;81.37
39681;BME280;26327;42.550;23.120;2023-04-20T09:21:25;92423.50;;;12.13;81.31
39681;BME280;26327;42.550;23.120;2023-04-20T09:24:00;92419.13;;;12.34;77.58
39681;BME280;26327;42.550;23.120;2023-04-20T09:26:26;92511.50;;;12.90;77.77
39681;BME280;26327;42.550;23.120;2023-04-20T09:28:51;92497.66;;;12.70;78.66
39681;BME280;26327;42.550;23.120;2023-04-20T09:31:20;92506.09;;;12.85;76.45
39681;BME280;26327;42.550;23.120;2023-04-20T09:33:59;92476.56;;;13.18;76.63
39681;BME280;26327;42.550;23.120;2023-04-20T09:36:43;92442.47;;;13.19;72.88
39681;BME280;26327;42.550;23.120;2023-04-20T09:39:11;92502.47;;;13.84;71.06
39681;BME280;26327;42.550;23.120;2023-04-20T09:41:38;92489.75;;;13.49;72.00
39681;BME280;26327;42.550;23.120;2023-04-20T09:44:04;92503.66;;;13.30;73.30
39681;BME280;26327;42.550;23.120;2023-04-20T09:46:32;92481.16;;;13.36;70.52
39681;BME280;26327;42.550;23.120;2023-04-20T09:48:58;92485.56;;;13.42;70.92
39681;BME280;26327;42.550;23.120;2023-04-20T09:51:26;92439.28;;;13.04;70.49
39681;BME280;26327;42.550;23.120;2023-04-20T09:53:57;92504.69;;;13.03;71.21
39681;BME280;26327;42.550;23.120;2023-04-20T09:56:23;92483.84;;;12.83;74.53
39681;BME280;26327;42.550;23.120;2023-04-20T09:58:50;92490.88;;;13.73;70.95
39681;BME280;26327;42.550;23.120;2023-04-20T10:01:16;92504.53;;;13.75;70.41
39681;BME280;26327;42.550;23.120;2023-04-20T10:03:43;92446.06;;;13.18;68.71
39681;BME280;26327;42.550;23.120;2023-04-20T10:06:22;92490.91;;;13.60;69.97
39681;BME280;26327;42.550;23.120;2023-04-20T10:08:48;92464.34;;;13.76;69.62
39681;BME280;26327;42.550;23.120;2023-04-20T10:11:25;92493.09;;;14.39;70.31
39681;BME280;26327;42.550;23.120;2023-04-20T10:13:51;92492.81;;;14.23;68.78
39681;BME280;26327;42.550;23.120;2023-04-20T10:16:17;92486.59;;;14.80;67.04
39681;BME280;26327;42.550;23.120;2023-04-20T10:18:43;92477.81;;;14.43;64.17
39681;BME280;26327;42.550;23.120;2023-04-20T10:21:08;92472.41;;;14.38;65.43
39681;BME280;26327;42.550;23.120;2023-04-20T10:23:34;92470.25;;;14.85;64.21
39681;BME280;26327;42.550;23.120;2023-04-20T10:26:00;92482.72;;;15.07;63.23
39681;BME280;26327;42.550;23.120;2023-04-20T10:28:40;92469.50;;;14.53;61.91
39681;BME280;26327;42.550;23.120;2023-04-20T10:31:06;92472.28;;;15.26;61.48
39681;BME280;26327;42.550;23.120;2023-04-20T10:33:32;92423.84;;;14.98;62.08
39681;BME280;26327;42.550;23.120;2023-04-20T10:35:58;92417.44;;;15.12;61.69
39681;BME280;26327;42.550;23.120;2023-04-20T10:38:32;92477.75;;;15.24;58.66
39681;BME280;26327;42.550;23.120;2023-04-20T10:41:18;92477.75;;;15.79;59.57
39681;BME280;26327;42.550;23.120;2023-04-20T10:43:45;92469.84;;;15.67;60.41
39681;BME280;26327;42.550;23.120;2023-04-20T10:46:17;92479.53;;;16.15;59.77
39681;BME280;26327;42.550;23.120;2023-04-20T10:48:49;92476.81;;;16.33;57.02
39681;BME280;26327;42.550;23.120;2023-04-20T10:51:16;92470.75;;;16.21;57.02
39681;BME280;26327;42.550;23.120;2023-04-20T10:53:41;92475.16;;;16.09;57.23
39681;BME280;26327;42.550;23.120;2023-04-20T10:56:07;92418.69;;;15.95;56.45
39681;BME280;26327;42.550;23.120;2023-04-20T10:58:32;92413.53;;;15.40;56.55
39681;BME280;26327;42.550;23.120;2023-04-20T11:01:03;92458.66;;;15.54;59.54
39681;BME280;26327;42.550;23.120;2023-04-20T11:03:30;92460.22;;;15.80;57.69
39681;BME280;26327;42.550;23.120;2023-04-20T11:05:59;92428.78;;;15.06;57.49
39681;BME280;26327;42.550;23.120;2023-04-20T11:08:39;92470.84;;;14.87;60.96
39681;BME280;26327;42.550;23.120;2023-04-20T11:11:05;92421.34;;;14.67;61.09
39681;BME280;26327;42.550;23.120;2023-04-20T11:13:41;92445.44;;;15.12;58.62
39681;BME280;26327;42.550;23.120;2023-04-20T11:16:14;92436.09;;;14.79;59.72
39681;BME280;26327;42.550;23.120;2023-04-20T11:18:54;92403.41;;;14.45;61.85
39681;BME280;26327;42.550;23.120;2023-04-20T11:21:20;92457.13;;;14.91;63.03
39681;BME280;26327;42.550;23.120;2023-04-20T11:23:47;92466.94;;;14.96;62.38
39681;BME280;26327;42.550;23.120;2023-04-20T11:26:12;92440.16;;;14.75;64.97
39681;BME280;26327;42.550;23.120;2023-04-20T11:28:49;92455.88;;;14.75;62.01
39681;BME280;26327;42.550;23.120;2023-04-20T11:31:17;92403.13;;;14.78;60.50
39681;BME280;26327;42.550;23.120;2023-04-20T11:33:43;92420.44;;;14.98;58.87
39681;BME280;26327;42.550;23.120;2023-04-20T11:36:18;92439.09;;;15.63;59.96
39681;BME280;26327;42.550;23.120;2023-04-20T11:38:43;92438.28;;;15.92;59.94
39681;BME280;26327;42.550;23.120;2023-04-20T11:41:10;92394.41;;;15.88;57.91
39681;BME280;26327;42.550;23.120;2023-04-20T11:43:35;92400.09;;;16.15;54.89
39681;BME280;26327;42.550;23.120;2023-04-20T11:46:01;92458.94;;;16.42;54.80
39681;BME280;26327;42.550;23.120;2023-04-20T11:48:30;92394.19;;;16.43;54.92
39681;BME280;26327;42.550;23.120;2023-04-20T11:50:56;92427.22;;;16.85;55.26
39681;BME280;26327;42.550;23.120;2023-04-20T11:53:22;92432.47;;;17.09;51.13
39681;BME280;26327;42.550;23.120;2023-04-20T11:55:47;92431.78;;;16.90;52.52
39681;BME280;26327;42.550;23.120;2023-04-20T11:58:13;92407.72;;;16.93;53.98
39681;BME280;26327;42.550;23.120;2023-04-20T12:00:38;92330.34;;;16.14;54.38
39681;BME280;26327;42.550;23.120;2023-04-20T12:03:04;92424.63;;;16.32;54.99
39681;BME280;26327;42.550;23.120;2023-04-20T12:05:29;92414.00;;;16.68;53.39
39681;BME280;26327;42.550;23.120;2023-04-20T12:07:55;92419.09;;;16.98;53.12
39681;BME280;26327;42.550;23.120;2023-04-20T12:10:20;92372.41;;;16.30;52.78
39681;BME280;26327;42.550;23.120;2023-04-20T12:12:46;92425.28;;;17.04;54.16
39681;BME280;26327;42.550;23.120;2023-04-20T12:15:11;92388.16;;;16.30;55.55
39681;BME280;26327;42.550;23.120;2023-04-20T12:17:37;92376.63;;;16.55;54.45
39681;BME280;26327;42.550;23.120;2023-04-20T12:20:03;92425.50;;;17.26;51.10
39681;BME280;26327;42.550;23.120;2023-04-20T12:22:32;92428.50;;;17.06;51.73
39681;BME280;26327;42.550;23.120;2023-04-20T12:24:58;92423.53;;;17.33;49.97
39681;BME280;26327;42.550;23.120;2023-04-20T12:27:24;92406.84;;;17.51;51.64
39681;BME280;26327;42.550;23.120;2023-04-20T12:29:50;92423.63;;;17.38;50.12
39681;BME280;26327;42.550;23.120;2023-04-20T12:32:15;92368.34;;;16.81;50.56
39681;BME280;26327;42.550;23.120;2023-04-20T12:34:41;92399.97;;;16.75;49.03
39681;BME280;26327;42.550;23.120;2023-04-20T12:37:06;92370.69;;;16.13;51.32
39681;BME280;26327;42.550;23.120;2023-04-20T12:39:31;92410.09;;;16.59;53.80
39681;BME280;26327;42.550;23.120;2023-04-20T12:41:57;92349.78;;;15.94;53.65
39681;BME280;26327;42.550;23.120;2023-04-20T12:44:22;92414.25;;;15.95;54.86
39681;BME280;26327;42.550;23.120;2023-04-20T12:46:47;92382.31;;;15.75;56.33
39681;BME280;26327;42.550;23.120;2023-04-20T12:49:13;92407.28;;;15.89;54.29
39681;BME280;26327;42.550;23.120;2023-04-20T12:51:38;92383.56;;;16.14;55.81
39681;BME280;26327;42.550;23.120;2023-04-20T12:54:05;92333.28;;;16.05;51.99
39681;BME280;26327;42.550;23.120;2023-04-20T12:56:30;92388.44;;;16.76;51.98
39681;BME280;26327;42.550;23.120;2023-04-20T12:58:55;92321.34;;;16.45;53.02
39681;BME280;26327;42.550;23.120;2023-04-20T13:01:21;92333.34;;;16.76;52.79
39681;BME280;26327;42.550;23.120;2023-04-20T13:03:46;92376.13;;;17.40;51.65
39681;BME280;26327;42.550;23.120;2023-04-20T13:06:11;92352.44;;;17.23;50.41
39681;BME280;26327;42.550;23.120;2023-04-20T13:08:37;92371.69;;;17.40;49.49
39681;BME280;26327;42.550;23.120;2023-04-20T13:11:02;92375.34;;;17.79;48.24
39681;BME280;26327;42.550;23.120;2023-04-20T13:13:28;92377.50;;;17.82;47.71
39681;BME280;26327;42.550;23.120;2023-04-20T13:15:53;92313.38;;;17.26;49.01
39681;BME280;26327;42.550;23.120;2023-04-20T13:18:19;92375.84;;;17.65;47.75
39681;BME280;26327;42.550;23.120;2023-04-20T13:20:45;92317.00;;;17.09;47.95
39681;BME280;26327;42.550;23.120;2023-04-20T13:23:11;92319.56;;;17.20;46.97
39681;BME280;26327;42.550;23.120;2023-04-20T13:25:36;92376.47;;;17.43;47.08
39681;BME280;26327;42.550;23.120;2023-04-20T13:28:03;92375.19;;;17.46;48.47
39681;BME280;26327;42.550;23.120;2023-04-20T13:30:29;92365.88;;;17.38;47.82
39681;BME280;26327;42.550;23.120;2023-04-20T13:32:54;92355.25;;;17.33;48.97
39681;BME280;26327;42.550;23.120;2023-04-20T13:35:20;92328.44;;;17.31;47.66
39681;BME280;26327;42.550;23.120;2023-04-20T13:37:46;92337.09;;;16.91;48.65
39681;BME280;26327;42.550;23.120;2023-04-20T13:40:11;92335.03;;;16.93;47.97
39681;BME280;26327;42.550;23.120;2023-04-20T13:42:37;92337.22;;;16.85;49.61
39681;BME280;26327;42.550;23.120;2023-04-20T13:45:03;92358.44;;;16.72;51.06
39681;BME280;26327;42.550;23.120;2023-04-20T13:47:29;92316.66;;;16.47;50.76
39681;BME280;26327;42.550;23.120;2023-04-20T13:49:54;92353.75;;;16.62;50.61
39681;BME280;26327;42.550;23.120;2023-04-20T13:52:20;92311.56;;;16.17;53.13
39681;BME280;26327;42.550;23.120;2023-04-20T13:54:46;92355.31;;;16.51;52.54
39681;BME280;26327;42.550;23.120;2023-04-20T13:57:11;92353.97;;;16.60;51.48
39681;BME280;26327;42.550;23.120;2023-04-20T13:59:37;92316.31;;;16.08;51.62
39681;BME280;26327;42.550;23.120;2023-04-20T14:02:02;92307.78;;;16.24;51.75
39681;BME280;26327;42.550;23.120;2023-04-20T14:04:27;92303.06;;;15.80;51.70
39681;BME280;26327;42.550;23.120;2023-04-20T14:06:53;92291.97;;;15.66;52.04
39681;BME280;26327;42.550;23.120;2023-04-20T14:09:18;92344.13;;;16.21;53.07
39681;BME280;26327;42.550;23.120;2023-04-20T14:11:44;92351.56;;;16.24;53.98
39681;BME280;26327;42.550;23.120;2023-04-20T14:14:10;92361.59;;;16.27;53.70
39681;BME280;26327;42.550;23.120;2023-04-20T14:16:47;92365.69;;;16.46;57.44
39681;BME280;26327;42.550;23.120;2023-04-20T14:19:13;92291.91;;;15.54;61.30
39681;BME280;26327;42.550;23.120;2023-04-20T14:21:39;92371.16;;;15.80;60.74
39681;BME280;26327;42.550;23.120;2023-04-20T14:24:09;92378.31;;;15.72;62.27
39681;BME280;26327;42.550;23.120;2023-04-20T14:26:35;92312.72;;;15.19;65.81
39681;BME280;26327;42.550;23.120;2023-04-20T14:29:01;92304.75;;;15.14;65.26
39681;BME280;26327;42.550;23.120;2023-04-20T14:31:27;92351.75;;;15.21;66.22
39681;BME280;26327;42.550;23.120;2023-04-20T14:33:52;92363.03;;;15.03;66.46
39681;BME280;26327;42.550;23.120;2023-04-20T14:36:18;92377.69;;;14.86;66.13
39681;BME280;26327;42.550;23.120;2023-04-20T14:38:43;92362.59;;;14.44;69.77
39681;BME280;26327;42.550;23.120;2023-04-20T14:41:09;92359.19;;;14.19;69.25
39681;BME280;26327;42.550;23.120;2023-04-20T14:43:34;92350.00;;;13.53;71.08
39681;BME280;26327;42.550;23.120;2023-04-20T14:46:00;92369.16;;;13.34;71.42
39681;BME280;26327;42.550;23.120;2023-04-20T14:48:26;92311.16;;;12.87;71.75
39681;BME280;26327;42.550;23.120;2023-04-20T14:50:54;92315.84;;;12.59;73.25
39681;BME280;26327;42.550;23.120;2023-04-20T14:53:20;92382.88;;;13.10;75.09
39681;BME280;26327;42.550;23.120;2023-04-20T14:55:45;92350.06;;;12.89;77.24
39681;BME280;26327;42.550;23.120;2023-04-20T14:58:11;92384.50;;;13.04;75.19
39681;BME280;26327;42.550;23.120;2023-04-20T15:00:36;92402.50;;;13.32;73.96
39681;BME280;26327;42.550;23.120;2023-04-20T15:03:02;92384.63;;;13.36;74.63
39681;BME280;26327;42.550;23.120;2023-04-20T15:05:28;92392.03;;;13.77;76.42
39681;BME280;26327;42.550;23.120;2023-04-20T15:07:53;92414.28;;;14.11;75.07
39681;BME280;26327;42.550;23.120;2023-04-20T15:10:19;92411.53;;;14.06;74.98
39681;BME280;26327;42.550;23.120;2023-04-20T15:12:46;92385.78;;;14.09;74.17
39681;BME280;26327;42.550;23.120;2023-04-20T15:15:12;92303.75;;;13.61;74.77
39681;BME280;26327;42.550;23.120;2023-04-20T15:17:37;92396.16;;;14.16;72.86
39681;BME280;26327;42.550;23.120;2023-04-20T15:20:03;92415.59;;;14.27;72.67
39681;BME280;26327;42.550;23.120;2023-04-20T15:22:29;92420.19;;;14.00;72.94
39681;BME280;26327;42.550;23.120;2023-04-20T15:24:55;92402.13;;;13.67;73.54
39681;BME280;26327;42.550;23.120;2023-04-20T15:27:20;92335.97;;;13.48;73.07
39681;BME280;26327;42.550;23.120;2023-04-20T15:29:45;92410.50;;;14.07;71.24
39681;BME280;26327;42.550;23.120;2023-04-20T15:32:11;92376.28;;;13.90;71.27
39681;BME280;26327;42.550;23.120;2023-04-20T15:34:36;92406.09;;;14.07;71.76
39681;BME280;26327;42.550;23.120;2023-04-20T15:37:02;92406.41;;;14.17;70.30
39681;BME280;26327;42.550;23.120;2023-04-20T15:39:27;92378.19;;;13.76;71.75
39681;BME280;26327;42.550;23.120;2023-04-20T15:41:52;92411.84;;;14.16;70.81
39681;BME280;26327;42.550;23.120;2023-04-20T15:44:18;92393.91;;;14.26;71.27
39681;BME280;26327;42.550;23.120;2023-04-20T15:46:43;92396.94;;;14.23;72.67
39681;BME280;26327;42.550;23.120;2023-04-20T15:49:09;92340.38;;;13.47;70.49
39681;BME280;26327;42.550;23.120;2023-04-20T15:51:34;92329.69;;;13.55;69.26
39681;BME280;26327;42.550;23.120;2023-04-20T15:53:59;92391.03;;;14.03;70.20
39681;BME280;26327;42.550;23.120;2023-04-20T15:56:25;92272.53;;;13.47;69.40
39681;BME280;26327;42.550;23.120;2023-04-20T15:58:51;92369.50;;;14.07;69.51
39681;BME280;26327;42.550;23.120;2023-04-20T16:01:17;92393.16;;;14.19;70.43
39681;BME280;26327;42.550;23.120;2023-04-20T16:03:43;92340.56;;;13.84;70.51
39681;BME280;26327;42.550;23.120;2023-04-20T16:06:08;92391.78;;;14.10;70.17
39681;BME280;26327;42.550;23.120;2023-04-20T16:08:34;92402.31;;;14.28;68.98
39681;BME280;26327;42.550;23.120;2023-04-20T16:10:59;92333.44;;;13.66;69.41
39681;BME280;26327;42.550;23.120;2023-04-20T16:13:25;92388.31;;;13.91;69.63
39681;BME280;26327;42.550;23.120;2023-04-20T16:15:51;92307.47;;;13.46;72.06
39681;BME280;26327;42.550;23.120;2023-04-20T16:18:17;92395.91;;;13.99;71.79
39681;BME280;26327;42.550;23.120;2023-04-20T16:20:42;92382.88;;;13.93;72.25
39681;BME280;26327;42.550;23.120;2023-04-20T16:23:07;92392.69;;;13.97;71.84
39681;BME280;26327;42.550;23.120;2023-04-20T16:25:34;92362.94;;;13.98;70.19
39681;BME280;26327;42.550;23.120;2023-04-20T16:28:00;92334.59;;;13.70;70.54
39681;BME280;26327;42.550;23.120;2023-04-20T16:30:26;92383.78;;;14.05;71.06
39681;BME280;26327;42.550;23.120;2023-04-20T16:32:51;92390.41;;;14.07;71.28
39681;BME280;26327;42.550;23.120;2023-04-20T16:35:17;92401.66;;;14.08;70.67
39681;BME280;26327;42.550;23.120;2023-04-20T16:37:43;92334.88;;;13.62;71.11
39681;BME280;26327;42.550;23.120;2023-04-20T16:40:08;92395.16;;;13.92;72.01
39681;BME280;26327;42.550;23.120;2023-04-20T16:42:34;92369.75;;;13.74;71.43
39681;BME280;26327;42.550;23.120;2023-04-20T16:45:00;92401.38;;;13.91;70.48
39681;BME280;26327;42.550;23.120;2023-04-20T16:47:25;92339.59;;;13.47;71.52
39681;BME280;26327;42.550;23.120;2023-04-20T16:49:51;92398.84;;;13.78;72.83
39681;BME280;26327;42.550;23.120;2023-04-20T16:52:16;92394.53;;;13.59;73.91
39681;BME280;26327;42.550;23.120;2023-04-20T16:54:41;92382.97;;;13.41;75.34
39681;BME280;26327;42.550;23.120;2023-04-20T16:57:07;92391.22;;;13.38;75.97
39681;BME280;26327;42.550;23.120;2023-04-20T16:59:33;92375.47;;;13.07;78.90
39681;BME280;26327;42.550;23.120;2023-04-20T17:01:58;92380.44;;;13.21;78.68
39681;BME280;26327;42.550;23.120;2023-04-20T17:04:24;92325.63;;;12.77;76.88
39681;BME280;26327;42.550;23.120;2023-04-20T17:06:49;92336.13;;;12.50;78.54
39681;BME280;26327;42.550;23.120;2023-04-20T17:09:15;92395.59;;;12.73;81.36
39681;BME280;26327;42.550;23.120;2023-04-20T17:11:41;92404.66;;;12.64;84.05
39681;BME280;26327;42.550;23.120;2023-04-20T17:14:07;92284.34;;;11.89;83.46
39681;BME280;26327;42.550;23.120;2023-04-20T17:16:32;92411.06;;;12.61;84.05
39681;BME280;26327;42.550;23.120;2023-04-20T17:18:58;92334.53;;;11.50;87.79
39681;BME280;26327;42.550;23.120;2023-04-20T17:21:23;92406.69;;;12.09;88.17
39681;BME280;26327;42.550;23.120;2023-04-20T17:23:50;92410.09;;;12.43;85.98
39681;BME280;26327;42.550;23.120;2023-04-20T17:26:16;92408.50;;;12.22;87.65
39681;BME280;26327;42.550;23.120;2023-04-20T17:28:41;92345.94;;;11.76;88.07
39681;BME280;26327;42.550;23.120;2023-04-20T17:31:07;92412.28;;;11.93;89.93
39681;BME280;26327;42.550;23.120;2023-04-20T17:33:32;92357.16;;;11.50;90.40
39681;BME280;26327;42.550;23.120;2023-04-20T17:35:58;92388.16;;;11.51;90.70
39681;BME280;26327;42.550;23.120;2023-04-20T17:38:24;92267.47;;;10.52;91.56
39681;BME280;26327;42.550;23.120;2023-04-20T17:40:50;92415.19;;;11.57;92.22
39681;BME280;26327;42.550;23.120;2023-04-20T17:43:15;92369.94;;;11.38;91.70
39681;BME280;26327;42.550;23.120;2023-04-20T17:45:41;92390.88;;;11.23;93.67
39681;BME280;26327;42.550;23.120;2023-04-20T17:48:06;92438.03;;;11.14;96.98
39681;BME280;26327;42.550;23.120;2023-04-20T17:50:33;92421.69;;;10.85;97.10
39681;BME280;26327;42.550;23.120;2023-04-20T17:52:58;92364.97;;;10.54;97.77
39681;BME280;26327;42.550;23.120;2023-04-20T17:55:31;92422.56;;;10.92;96.55
39681;BME280;26327;42.550;23.120;2023-04-20T17:57:57;92433.25;;;11.17;95.68
39681;BME280;26327;42.550;23.120;2023-04-20T18:00:22;92427.47;;;11.22;95.17
39681;BME280;26327;42.550;23.120;2023-04-20T18:02:48;92443.22;;;10.72;96.82
39681;BME280;26327;42.550;23.120;2023-04-20T18:05:13;92434.34;;;10.60;98.65
39681;BME280;26327;42.550;23.120;2023-04-20T18:07:38;92366.06;;;10.10;98.40
39681;BME280;26327;42.550;23.120;2023-04-20T18:10:04;92424.81;;;10.39;99.55
39681;BME280;26327;42.550;23.120;2023-04-20T18:12:30;92386.06;;;10.17;99.42
39681;BME280;26327;42.550;23.120;2023-04-20T18:14:55;92366.41;;;9.79;99.52
39681;BME280;26327;42.550;23.120;2023-04-20T18:17:20;92441.47;;;10.02;100.00
39681;BME280;26327;42.550;23.120;2023-04-20T18:19:46;92378.09;;;9.69;100.00
39681;BME280;26327;42.550;23.120;2023-04-20T18:22:11;92458.91;;;10.08;100.00
39681;BME280;26327;42.550;23.120;2023-04-20T18:24:37;92405.09;;;9.96;100.00
39681;BME280;26327;42.550;23.120;2023-04-20T18:27:02;92441.06;;;10.20;100.00
39681;BME280;26327;42.550;23.120;2023-04-20T18:29:28;92385.50;;;9.72;100.00
39681;BME280;26327;42.550;23.120;2023-04-20T18:31:54;92458.28;;;9.85;100.00
39681;BME280;26327;42.550;23.120;2023-04-20T18:34:23;92393.50;;;9.49;100.00
39681;BME280;26327;42.550;23.120;2023-04-20T18:36:49;92383.63;;;9.44;100.00
39681;BME280;26327;42.550;23.120;2023-04-20T18:39:14;92446.84;;;9.79;100.00
39681;BME280;26327;42.550;23.120;2023-04-20T18:41:40;92399.88;;;9.32;100.00
39681;BME280;26327;42.550;23.120;2023-04-20T18:44:06;92462.91;;;9.32;100.00
39681;BME280;26327;42.550;23.120;2023-04-20T18:46:32;92451.41;;;9.56;100.00
39681;BME280;26327;42.550;23.120;2023-04-20T18:48:57;92469.16;;;9.95;100.00
39681;BME280;26327;42.550;23.120;2023-04-20T18:51:23;92467.03;;;9.84;100.00
39681;BME280;26327;42.550;23.120;2023-04-20T18:53:48;92451.59;;;9.55;100.00
39681;BME280;26327;42.550;23.120;2023-04-20T18:56:13;92393.38;;;9.21;100.00
39681;BME280;26327;42.550;23.120;2023-04-20T18:58:39;92422.19;;;9.11;100.00
39681;BME280;26327;42.550;23.120;2023-04-20T19:01:05;92461.44;;;9.08;100.00
39681;BME280;26327;42.550;23.120;2023-04-20T19:03:30;92421.53;;;8.59;100.00
39681;BME280;26327;42.550;23.120;2023-04-20T19:05:56;92482.44;;;8.99;100.00
39681;BME280;26327;42.550;23.120;2023-04-20T19:08:22;92476.06;;;8.87;100.00
39681;BME280;26327;42.550;23.120;2023-04-20T19:10:48;92465.63;;;8.65;100.00
39681;BME280;26327;42.550;23.120;2023-04-20T19:13:13;92421.25;;;8.16;100.00
39681;BME280;26327;42.550;23.120;2023-04-20T19:15:44;92413.81;;;8.36;100.00
39681;BME280;26327;42.550;23.120;2023-04-20T19:18:10;92419.56;;;8.61;100.00
39681;BME280;26327;42.550;23.120;2023-04-20T19:20:36;92473.31;;;8.88;100.00
39681;BME280;26327;42.550;23.120;2023-04-20T19:23:01;92491.63;;;9.01;100.00
39681;BME280;26327;42.550;23.120;2023-04-20T19:25:26;92479.13;;;9.05;100.00
39681;BME280;26327;42.550;23.120;2023-04-20T19:27:52;92405.97;;;8.59;100.00
39681;BME280;26327;42.550;23.120;2023-04-20T19:30:18;92492.59;;;8.86;100.00
39681;BME280;26327;42.550;23.120;2023-04-20T19:32:43;92433.28;;;8.76;100.00
39681;BME280;26327;42.550;23.120;2023-04-20T19:35:09;92491.34;;;8.96;100.00
39681;BME280;26327;42.550;23.120;2023-04-20T19:37:34;92442.94;;;8.52;100.00
39681;BME280;26327;42.550;23.120;2023-04-20T19:39:59;92491.72;;;9.08;100.00
39681;BME280;26327;42.550;23.120;2023-04-20T19:42:25;92420.53;;;8.74;100.00
39681;BME280;26327;42.550;23.120;2023-04-20T19:44:50;92469.38;;;8.92;100.00
39681;BME280;26327;42.550;23.120;2023-04-20T19:47:17;92494.31;;;9.08;100.00
39681;BME280;26327;42.550;23.120;2023-04-20T19:49:44;92472.78;;;8.63;100.00
39681;BME280;26327;42.550;23.120;2023-04-20T19:52:09;92422.94;;;8.09;100.00
39681;BME280;26327;42.550;23.120;2023-04-20T19:54:35;92493.81;;;8.45;100.00
39681;BME280;26327;42.550;23.120;2023-04-20T19:57:00;92494.28;;;8.64;100.00
39681;BME280;26327;42.550;23.120;2023-04-20T19:59:26;92425.38;;;8.25;100.00
39681;BME280;26327;42.550;23.120;2023-04-20T20:01:52;92487.50;;;8.63;100.00
39681;BME280;26327;42.550;23.120;2023-04-20T20:04:18;92417.97;;;8.22;100.00
39681;BME280;26327;42.550;23.120;2023-04-20T20:06:44;92494.47;;;8.77;100.00